Time;durP1;ratioP1;P1;durP2;ratioP2;P2;SDS_P1;SDS_P2;PMS_P1;PMS_P2;Temp;Humidity;BMP_temperature;BMP_pressure;BME280_temperature;BME280_humidity;BME280_pressure;Samples;Min_cycle;Max_cycle;Signal;HPM_P1;HPM_P2
2023/08/26 00:00:48;;;;;;;8.47;7.60;;;18.30;99.90;;;;;;2062462;28;20228;-68
2023/08/26 00:01:49;;;;;;;8.07;7.27;;;18.30;99.90;;;;;;2062476;28;20467;-66
2023/08/26 00:02:50;;;;;;;8.63;7.00;;;18.40;99.90;;;;;;2063018;28;20464;-67
2023/08/26 00:03:51;;;;;;;8.90;6.97;;;18.50;99.90;;;;;;2061827;28;20222;-68
2023/08/26 00:04:52;;;;;;;10.10;8.80;;;18.40;99.90;;;;;;2062034;28;20217;-68
2023/08/26 00:05:52;;;;;;;15.10;10.50;;;18.30;99.90;;;;;;2058661;28;20276;-68
2023/08/26 00:06:53;;;;;;;12.20;8.90;;;18.20;99.90;;;;;;2059062;28;20528;-68
2023/08/26 00:07:54;;;;;;;13.83;10.60;;;18.20;99.90;;;;;;2050716;28;20245;-67
2023/08/26 00:08:54;;;;;;;11.20;9.33;;;18.20;99.90;;;;;;2054477;28;20219;-68
2023/08/26 00:09:55;;;;;;;10.43;8.67;;;18.30;99.90;;;;;;2054262;28;20219;-67
2023/08/26 00:10:56;;;;;;;10.07;8.70;;;18.30;99.90;;;;;;2054440;28;20280;-68
2023/08/26 00:11:57;;;;;;;12.57;9.67;;;18.30;99.90;;;;;;2054369;28;20465;-67
2023/08/26 00:12:58;;;;;;;10.80;9.70;;;18.20;99.90;;;;;;2062793;28;20546;-68
2023/08/26 00:13:58;;;;;;;12.37;9.40;;;18.10;99.90;;;;;;2054135;28;20390;-68
2023/08/26 00:14:59;;;;;;;10.63;9.60;;;18.20;99.90;;;;;;2054250;28;20319;-68
2023/08/26 00:16:00;;;;;;;10.83;9.70;;;18.20;99.90;;;;;;2048190;28;20228;-68
2023/08/26 00:17:01;;;;;;;10.40;9.13;;;18.20;99.90;;;;;;2038370;28;20255;-68
2023/08/26 00:18:03;;;;;;;10.20;8.13;;;18.20;99.90;;;;;;2057689;28;20339;-68
2023/08/26 00:19:04;;;;;;;9.03;8.13;;;18.10;99.90;;;;;;2051543;28;20222;-66
2023/08/26 00:20:07;;;;;;;9.50;8.47;;;18.00;99.90;;;;;;2063657;28;20428;-67
2023/08/26 00:21:10;;;;;;;10.50;9.40;;;18.10;99.90;;;;;;2062509;28;20690;-67
2023/08/26 00:22:11;;;;;;;9.60;8.60;;;18.20;99.90;;;;;;2059055;28;20425;-67
2023/08/26 00:23:12;;;;;;;11.63;9.57;;;18.10;99.90;;;;;;2062307;28;20428;-67
2023/08/26 00:24:13;;;;;;;10.90;9.07;;;18.10;99.90;;;;;;2055650;28;20429;-66
2023/08/26 00:25:13;;;;;;;10.23;7.10;;;18.20;99.90;;;;;;2062763;28;20210;-64
2023/08/26 00:26:16;;;;;;;9.60;7.47;;;18.10;99.90;;;;;;2058950;28;20175;-68
2023/08/26 00:27:17;;;;;;;10.23;8.07;;;18.10;99.90;;;;;;2062603;28;20197;-67
2023/08/26 00:28:18;;;;;;;11.07;8.97;;;18.10;99.90;;;;;;2043845;28;20537;-66
2023/08/26 00:29:18;;;;;;;9.17;8.13;;;18.20;99.90;;;;;;2054763;28;20574;-68
2023/08/26 00:30:19;;;;;;;10.30;8.97;;;18.20;99.90;;;;;;2059383;28;20242;-67
2023/08/26 00:31:22;;;;;;;8.83;8.00;;;18.30;99.90;;;;;;2062665;28;20212;-66
2023/08/26 00:32:22;;;;;;;9.00;8.03;;;18.20;99.90;;;;;;2060491;28;20234;-67
2023/08/26 00:33:23;;;;;;;9.70;7.87;;;18.20;99.90;;;;;;2062129;28;20483;-68
2023/08/26 00:34:24;;;;;;;9.07;8.17;;;18.20;99.90;;;;;;2061337;28;20329;-67
2023/08/26 00:35:25;;;;;;;11.73;8.37;;;18.20;99.90;;;;;;2054147;28;20807;-67
2023/08/26 00:36:26;;;;;;;15.17;7.83;;;18.30;99.90;;;;;;2054268;28;20301;-69
2023/08/26 00:37:27;;;;;;;10.57;7.93;;;18.20;99.90;;;;;;2053549;28;20592;-68
2023/08/26 00:38:30;;;;;;;8.63;7.83;;;18.10;99.90;;;;;;2061456;28;20272;-68
2023/08/26 00:39:31;;;;;;;8.60;7.77;;;18.00;99.90;;;;;;2062404;28;21010;-67
2023/08/26 00:40:36;;;;;;;10.23;7.70;;;18.00;99.90;;;;;;2059811;28;20482;-68
2023/08/26 00:41:36;;;;;;;10.50;7.40;;;18.00;99.90;;;;;;2058077;28;20607;-66
2023/08/26 00:42:37;;;;;;;9.00;8.10;;;18.10;99.90;;;;;;2052531;28;20523;-66
2023/08/26 00:43:38;;;;;;;10.77;7.80;;;18.10;99.90;;;;;;2054232;28;20231;-67
2023/08/26 00:44:38;;;;;;;8.40;7.60;;;18.20;99.90;;;;;;2062522;28;20229;-67
2023/08/26 00:45:43;;;;;;;9.50;7.80;;;18.20;99.90;;;;;;2062291;28;20244;-67
2023/08/26 00:46:44;;;;;;;8.40;7.50;;;18.20;99.90;;;;;;2052833;28;20962;-66
2023/08/26 00:47:45;;;;;;;8.83;7.17;;;18.20;99.90;;;;;;2052791;28;21035;-68
2023/08/26 00:48:46;;;;;;;10.53;7.53;;;18.20;99.90;;;;;;2050877;28;20469;-69
2023/08/26 00:49:47;;;;;;;9.20;7.50;;;18.30;99.90;;;;;;2052224;28;20745;-68
2023/08/26 00:50:50;;;;;;;10.17;7.30;;;18.20;99.90;;;;;;2062266;28;20547;-68
2023/08/26 00:51:52;;;;;;;9.27;6.40;;;18.10;99.90;;;;;;2054390;28;20393;-68
2023/08/26 00:52:53;;;;;;;11.03;7.77;;;18.20;99.90;;;;;;2062861;28;20464;-68
2023/08/26 00:53:55;;;;;;;9.20;7.67;;;18.10;99.90;;;;;;2059135;28;20480;-68
2023/08/26 00:54:56;;;;;;;8.23;7.30;;;18.10;99.90;;;;;;2054360;28;20461;-69
2023/08/26 00:55:57;;;;;;;12.30;6.43;;;18.20;99.90;;;;;;2054102;28;20471;-69
2023/08/26 00:56:58;;;;;;;7.93;6.40;;;18.10;99.90;;;;;;2053979;28;20519;-68
2023/08/26 00:57:59;;;;;;;7.73;6.20;;;18.00;99.90;;;;;;2046333;28;20457;-70
2023/08/26 00:59:00;;;;;;;8.20;6.37;;;17.90;99.90;;;;;;2046618;28;20473;-71
2023/08/26 01:00:01;;;;;;;6.50;5.40;;;17.90;99.90;;;;;;2064916;28;20472;-70
2023/08/26 01:01:02;;;;;;;5.90;5.30;;;17.80;99.90;;;;;;2061398;28;20226;-71
2023/08/26 01:02:04;;;;;;;9.80;4.93;;;17.80;99.90;;;;;;2061942;28;20217;-71
2023/08/26 01:03:06;;;;;;;6.27;5.67;;;17.80;99.90;;;;;;2054550;28;20436;-70
2023/08/26 01:04:07;;;;;;;6.73;5.50;;;17.80;99.90;;;;;;2054693;28;20433;-71
2023/08/26 01:05:08;;;;;;;6.17;5.57;;;17.80;99.90;;;;;;2063183;28;20459;-71
2023/08/26 01:06:09;;;;;;;5.73;4.90;;;17.70;99.90;;;;;;2062541;28;20190;-70
2023/08/26 01:07:10;;;;;;;7.63;5.17;;;17.60;99.90;;;;;;2062163;28;20448;-71
2023/08/26 01:08:11;;;;;;;6.63;5.43;;;17.70;99.90;;;;;;2062209;28;20848;-71
2023/08/26 01:09:12;;;;;;;9.07;5.90;;;17.70;99.90;;;;;;2066105;28;20186;-71
2023/08/26 01:10:13;;;;;;;10.57;6.63;;;17.60;99.90;;;;;;2066941;28;20244;-71
2023/08/26 01:11:53;;;;;;;12.67;6.27;;;17.60;99.90;;;;;;2068572;28;20518;-72
2023/08/26 01:13:04;;;;;;;13.90;6.90;;;17.50;99.90;;;;;;2050556;28;20699;-71
2023/08/26 01:14:13;;;;;;;12.47;6.33;;;17.30;99.90;;;;;;2053027;28;20535;-71
2023/08/26 01:15:15;;;;;;;14.53;6.83;;;17.10;99.90;;;;;;2064974;28;20514;-71
2023/08/26 01:16:17;;;;;;;8.23;6.40;;;17.10;99.90;;;;;;2062462;28;20419;-71
2023/08/26 01:17:19;;;;;;;7.20;6.47;;;17.00;99.90;;;;;;2062125;28;20478;-72
2023/08/26 01:18:20;;;;;;;9.50;6.83;;;16.90;99.90;;;;;;2053828;28;20475;-71
2023/08/26 01:19:43;;;;;;;9.33;7.00;;;16.90;99.90;;;;;;2062286;28;20464;-70
2023/08/26 01:20:44;;;;;;;7.97;6.37;;;17.00;99.90;;;;;;2065904;28;20521;-72
2023/08/26 01:21:49;;;;;;;7.53;6.13;;;16.90;99.90;;;;;;2049886;28;20460;-70
2023/08/26 01:22:52;;;;;;;7.77;6.17;;;16.90;99.90;;;;;;2043700;28;20484;-71
2023/08/26 01:23:53;;;;;;;7.27;5.87;;;16.90;99.90;;;;;;2054168;28;21013;-71
2023/08/26 01:24:56;;;;;;;9.57;6.63;;;16.90;99.90;;;;;;2059111;28;20612;-72
2023/08/26 01:25:56;;;;;;;8.90;7.20;;;17.00;99.90;;;;;;2065019;28;20555;-71
2023/08/26 01:26:58;;;;;;;9.37;7.00;;;17.00;99.90;;;;;;2061242;28;20482;-71
2023/08/26 01:27:59;;;;;;;10.20;7.03;;;17.10;99.90;;;;;;2054084;28;20218;-71
2023/08/26 01:29:00;;;;;;;9.70;6.70;;;17.20;99.90;;;;;;2059512;28;20464;-71
2023/08/26 01:30:01;;;;;;;8.20;7.33;;;17.30;99.90;;;;;;2062922;28;20288;-71
2023/08/26 01:31:12;;;;;;;10.80;7.53;;;17.40;99.90;;;;;;2052322;28;20309;-73
2023/08/26 01:33:16;;;;;;;8.20;7.40;;;17.40;99.90;;;;;;2040876;28;20445;-71
2023/08/26 01:34:23;;;;;;;10.70;8.20;;;17.60;99.90;;;;;;2019587;29;20456;-71
2023/08/26 01:35:33;;;;;;;9.10;7.63;;;17.50;99.90;;;;;;2014332;29;20484;-70
2023/08/26 01:36:41;;;;;;;10.27;7.07;;;17.60;99.90;;;;;;2015477;29;20477;-71
2023/08/26 01:37:45;;;;;;;9.10;7.00;;;17.60;99.90;;;;;;2018469;29;20480;-71
2023/08/26 01:38:46;;;;;;;8.27;6.37;;;17.50;99.90;;;;;;2016501;29;20554;-71
2023/08/26 01:39:49;;;;;;;11.47;6.63;;;17.50;99.90;;;;;;2036471;28;20560;-71
2023/08/26 01:40:56;;;;;;;9.53;7.30;;;17.40;99.90;;;;;;2057428;28;20464;-72
2023/08/26 01:41:58;;;;;;;10.27;7.33;;;17.30;99.90;;;;;;2061522;28;21107;-72
2023/08/26 01:43:02;;;;;;;8.33;7.23;;;17.30;99.90;;;;;;2062237;28;20482;-71
2023/08/26 01:44:04;;;;;;;10.80;7.17;;;17.20;99.90;;;;;;2060360;28;20499;-71
2023/08/26 01:45:06;;;;;;;10.03;6.63;;;17.20;99.90;;;;;;2050865;28;20428;-71
2023/08/26 01:46:07;;;;;;;7.57;6.50;;;17.20;99.90;;;;;;2058945;28;20428;-74
2023/08/26 01:47:08;;;;;;;7.70;6.90;;;17.20;99.90;;;;;;2053644;28;20429;-71
2023/08/26 01:48:09;;;;;;;8.63;6.53;;;17.20;99.90;;;;;;2053772;28;20214;-71
2023/08/26 01:49:10;;;;;;;8.37;7.03;;;17.20;99.90;;;;;;2063315;28;20203;-71
2023/08/26 01:50:10;;;;;;;9.83;7.00;;;17.10;99.90;;;;;;2044525;28;20433;-71
2023/08/26 01:51:13;;;;;;;8.70;7.20;;;17.10;99.90;;;;;;2045145;28;20548;-71
2023/08/26 01:52:15;;;;;;;7.93;6.90;;;17.20;99.90;;;;;;2061323;28;20656;-71
2023/08/26 01:53:15;;;;;;;7.90;6.63;;;17.10;99.90;;;;;;2053046;28;20523;-71
2023/08/26 01:54:16;;;;;;;7.13;6.33;;;17.20;99.90;;;;;;2053860;28;20429;-71
2023/08/26 01:55:17;;;;;;;8.03;7.20;;;17.20;99.90;;;;;;2061351;28;21051;-71
2023/08/26 01:56:17;;;;;;;8.30;6.53;;;17.20;99.90;;;;;;2061507;28;20217;-71
2023/08/26 01:57:18;;;;;;;8.77;7.33;;;17.30;99.90;;;;;;2053549;28;20261;-71
2023/08/26 01:58:19;;;;;;;10.37;7.10;;;17.40;99.90;;;;;;2053590;28;20206;-71
2023/08/26 01:59:20;;;;;;;12.03;8.00;;;17.30;99.90;;;;;;2061574;28;20219;-70
2023/08/26 02:00:20;;;;;;;10.00;7.47;;;17.30;99.90;;;;;;2061534;28;20240;-71
2023/08/26 02:01:22;;;;;;;8.97;7.20;;;17.30;99.90;;;;;;2061631;28;20341;-71
2023/08/26 02:02:22;;;;;;;10.43;6.70;;;17.40;99.90;;;;;;2061528;28;20234;-69
2023/08/26 02:03:23;;;;;;;12.13;7.70;;;17.40;99.90;;;;;;2061501;28;20554;-71
2023/08/26 02:04:24;;;;;;;9.37;7.40;;;17.40;99.90;;;;;;2053588;28;20266;-71
2023/08/26 02:05:24;;;;;;;11.93;7.83;;;17.40;99.90;;;;;;2061266;28;20234;-70
2023/08/26 02:06:25;;;;;;;10.40;8.53;;;17.40;99.90;;;;;;2061427;28;20253;-71
2023/08/26 02:07:26;;;;;;;11.43;8.23;;;17.40;99.90;;;;;;2061446;28;20355;-71
2023/08/26 02:08:27;;;;;;;8.93;7.83;;;17.30;99.90;;;;;;2052571;28;20540;-71
2023/08/26 02:09:27;;;;;;;10.53;7.93;;;17.40;99.90;;;;;;2054088;28;20259;-70
2023/08/26 02:10:28;;;;;;;9.70;7.97;;;17.40;99.90;;;;;;2053312;28;20235;-71
2023/08/26 02:11:29;;;;;;;9.23;7.73;;;17.40;99.90;;;;;;2053519;28;20826;-71
2023/08/26 02:12:30;;;;;;;10.93;8.70;;;17.40;99.90;;;;;;2061543;28;20284;-71
2023/08/26 02:13:30;;;;;;;10.70;7.63;;;17.40;99.90;;;;;;2062410;28;20271;-71
2023/08/26 02:14:32;;;;;;;9.00;7.70;;;17.30;99.90;;;;;;2063167;28;20229;-71
2023/08/26 02:15:35;;;;;;;9.67;8.67;;;17.30;99.90;;;;;;2053141;28;20227;-71
2023/08/26 02:16:35;;;;;;;9.30;8.20;;;17.40;99.90;;;;;;2060017;28;20510;-71
2023/08/26 02:17:37;;;;;;;12.13;8.10;;;17.40;99.90;;;;;;2067889;28;20999;-71
2023/08/26 02:18:37;;;;;;;10.13;7.43;;;17.50;99.90;;;;;;2062622;28;20230;-71
2023/08/26 02:19:38;;;;;;;9.93;7.90;;;17.50;99.90;;;;;;2061719;28;20546;-71
2023/08/26 02:20:43;;;;;;;13.07;8.93;;;17.40;99.90;;;;;;2061352;28;20723;-70
2023/08/26 02:21:44;;;;;;;10.57;8.63;;;17.40;99.90;;;;;;2061576;28;20635;-71
2023/08/26 02:22:45;;;;;;;9.07;7.93;;;17.40;99.90;;;;;;2053619;28;20840;-72
2023/08/26 02:23:45;;;;;;;13.63;9.20;;;17.50;99.90;;;;;;2053343;28;20492;-71
2023/08/26 02:24:46;;;;;;;10.83;8.60;;;17.40;99.90;;;;;;2051444;28;20722;-70
2023/08/26 02:25:47;;;;;;;11.70;9.07;;;17.40;99.90;;;;;;2060838;28;20226;-71
2023/08/26 02:26:48;;;;;;;13.03;8.30;;;17.30;99.90;;;;;;2059161;28;20472;-70
2023/08/26 02:27:48;;;;;;;12.40;9.10;;;17.30;99.90;;;;;;2061700;28;20225;-71
2023/08/26 02:28:49;;;;;;;16.27;9.37;;;17.30;99.90;;;;;;2062199;28;20229;-72
2023/08/26 02:29:50;;;;;;;10.07;9.03;;;17.30;99.90;;;;;;2062141;28;20218;-71
2023/08/26 02:30:51;;;;;;;9.27;7.70;;;17.30;99.90;;;;;;2061488;28;20238;-71
2023/08/26 02:31:51;;;;;;;16.10;10.07;;;17.40;99.90;;;;;;2061872;28;20229;-71
2023/08/26 02:32:52;;;;;;;13.90;9.90;;;17.40;99.90;;;;;;2061699;28;20256;-71
2023/08/26 02:33:53;;;;;;;10.30;8.80;;;17.40;99.90;;;;;;2061805;28;20518;-71
2023/08/26 02:34:54;;;;;;;10.67;9.23;;;17.40;99.90;;;;;;2061738;28;20659;-71
2023/08/26 02:35:54;;;;;;;13.50;9.53;;;17.30;99.90;;;;;;2062214;28;20304;-71
2023/08/26 02:36:55;;;;;;;11.17;8.67;;;17.30;99.90;;;;;;2062155;28;20230;-71
2023/08/26 02:37:56;;;;;;;11.07;8.67;;;17.30;99.90;;;;;;2061821;28;20229;-71
2023/08/26 02:38:56;;;;;;;10.10;8.47;;;17.30;99.90;;;;;;2062063;28;20230;-70
2023/08/26 02:39:59;;;;;;;12.80;9.13;;;17.30;99.90;;;;;;2063236;28;20226;-71
2023/08/26 02:41:00;;;;;;;13.60;10.27;;;17.40;99.90;;;;;;2059721;28;20234;-71
2023/08/26 02:42:01;;;;;;;11.20;8.90;;;17.40;99.90;;;;;;2062454;28;20480;-71
2023/08/26 02:43:01;;;;;;;9.77;8.50;;;17.40;99.90;;;;;;2063176;28;20233;-73
2023/08/26 02:44:02;;;;;;;10.20;7.90;;;17.40;99.90;;;;;;2054787;28;20282;-73
2023/08/26 02:45:04;;;;;;;11.03;8.50;;;17.40;99.90;;;;;;2054581;28;20667;-70
2023/08/26 02:46:05;;;;;;;10.60;8.10;;;17.40;99.90;;;;;;2055149;28;20198;-71
2023/08/26 02:47:05;;;;;;;11.43;8.40;;;17.50;99.90;;;;;;2055035;28;20471;-71
2023/08/26 02:48:06;;;;;;;11.30;8.30;;;17.50;99.90;;;;;;2062867;28;20191;-71
2023/08/26 02:49:07;;;;;;;12.10;9.73;;;17.60;99.90;;;;;;2070605;28;20221;-71
2023/08/26 02:50:09;;;;;;;12.83;9.37;;;17.60;99.90;;;;;;2061592;28;20226;-71
2023/08/26 02:51:10;;;;;;;11.90;9.00;;;17.60;99.90;;;;;;2053483;28;20207;-71
2023/08/26 02:52:11;;;;;;;13.23;9.80;;;17.60;99.90;;;;;;2063032;28;20444;-71
2023/08/26 02:53:11;;;;;;;11.37;8.60;;;17.60;99.90;;;;;;2064130;28;20320;-71
2023/08/26 02:54:13;;;;;;;14.17;9.03;;;17.60;99.90;;;;;;2062100;28;20222;-71
2023/08/26 02:55:14;;;;;;;14.20;9.63;;;17.60;99.90;;;;;;2062602;28;20936;-71
2023/08/26 02:56:15;;;;;;;10.07;8.63;;;17.70;99.90;;;;;;2062924;28;20201;-71
2023/08/26 02:57:16;;;;;;;11.00;8.77;;;17.80;99.90;;;;;;2062143;28;20198;-71
2023/08/26 02:58:18;;;;;;;13.07;9.73;;;17.80;99.90;;;;;;2070616;28;20196;-71
2023/08/26 02:59:19;;;;;;;13.40;9.40;;;17.80;99.90;;;;;;2067848;28;20459;-71
2023/08/26 03:00:20;;;;;;;12.90;9.53;;;17.80;99.90;;;;;;2058103;28;20921;-71
2023/08/26 03:01:20;;;;;;;12.50;10.40;;;17.70;99.90;;;;;;2046746;28;20230;-71
2023/08/26 03:02:24;;;;;;;16.03;10.87;;;17.60;99.90;;;;;;2054950;28;20385;-71
2023/08/26 03:03:25;;;;;;;11.47;10.20;;;17.50;99.90;;;;;;2061696;28;20723;-71
2023/08/26 03:04:26;;;;;;;11.90;10.07;;;17.60;99.90;;;;;;2055619;28;20480;-71
2023/08/26 03:05:27;;;;;;;11.90;9.57;;;17.60;99.90;;;;;;2062490;28;20237;-71
2023/08/26 03:06:28;;;;;;;12.33;10.33;;;17.60;99.90;;;;;;2063351;28;20768;-71
2023/08/26 03:07:29;;;;;;;14.67;9.93;;;17.60;99.90;;;;;;2055129;28;20323;-70
2023/08/26 03:08:30;;;;;;;12.63;10.13;;;17.60;99.90;;;;;;2054447;28;20523;-71
2023/08/26 03:09:30;;;;;;;11.43;10.20;;;17.50;99.90;;;;;;2046859;28;20476;-70
2023/08/26 03:10:32;;;;;;;12.03;9.70;;;17.50;99.90;;;;;;2054928;28;20254;-71
2023/08/26 03:11:32;;;;;;;14.60;10.67;;;17.50;99.90;;;;;;2055125;28;20235;-71
2023/08/26 03:12:33;;;;;;;13.53;10.27;;;17.50;99.90;;;;;;2062344;28;20467;-71
2023/08/26 03:13:34;;;;;;;12.77;9.90;;;17.50;99.90;;;;;;2057838;28;20364;-70
2023/08/26 03:14:34;;;;;;;11.40;10.20;;;17.40;99.90;;;;;;2051927;28;20231;-71
2023/08/26 03:15:35;;;;;;;17.80;11.43;;;17.40;99.90;;;;;;2062056;28;20297;-71
2023/08/26 03:16:36;;;;;;;14.07;11.80;;;17.40;99.90;;;;;;2062394;28;20226;-71
2023/08/26 03:17:37;;;;;;;13.97;11.57;;;17.40;99.90;;;;;;2063091;28;20244;-70
2023/08/26 03:18:40;;;;;;;19.07;13.13;;;17.50;99.90;;;;;;2063244;28;20484;-70
2023/08/26 03:19:41;;;;;;;18.20;13.27;;;17.60;99.90;;;;;;2071439;28;20241;-70
2023/08/26 03:20:42;;;;;;;22.57;13.60;;;17.60;99.90;;;;;;2061495;28;20471;-71
2023/08/26 03:21:43;;;;;;;16.77;12.77;;;17.60;99.90;;;;;;2046341;28;20298;-70
2023/08/26 03:22:45;;;;;;;14.07;11.73;;;17.60;99.90;;;;;;2047246;28;20265;-71
2023/08/26 03:23:46;;;;;;;18.93;13.80;;;17.60;99.90;;;;;;2046670;28;20470;-70
2023/08/26 03:24:47;;;;;;;16.73;13.10;;;17.60;99.90;;;;;;2046509;28;20494;-70
2023/08/26 03:25:48;;;;;;;22.43;15.13;;;17.70;99.90;;;;;;2057372;28;20219;-71
2023/08/26 03:26:49;;;;;;;12.93;10.77;;;17.70;99.90;;;;;;2067098;28;20720;-70
2023/08/26 03:27:50;;;;;;;12.27;10.97;;;17.80;99.90;;;;;;2062433;28;20460;-71
2023/08/26 03:28:51;;;;;;;16.43;11.13;;;17.80;99.90;;;;;;2062314;28;20725;-70
2023/08/26 03:29:52;;;;;;;14.03;11.47;;;17.70;99.90;;;;;;2062114;28;20230;-71
2023/08/26 03:30:53;;;;;;;12.03;10.33;;;17.70;99.90;;;;;;2062627;28;20853;-70
2023/08/26 03:31:53;;;;;;;12.70;9.90;;;17.70;99.90;;;;;;2054261;28;20711;-71
2023/08/26 03:32:54;;;;;;;12.47;10.20;;;17.60;99.90;;;;;;2054725;28;20705;-70
2023/08/26 03:33:55;;;;;;;14.23;11.13;;;17.60;99.90;;;;;;2062656;28;20336;-70
2023/08/26 03:34:55;;;;;;;14.17;11.50;;;17.60;99.90;;;;;;2063057;28;20253;-70
2023/08/26 03:35:56;;;;;;;14.70;11.80;;;17.60;99.90;;;;;;2062291;28;20232;-70
2023/08/26 03:36:57;;;;;;;14.37;12.87;;;17.60;99.90;;;;;;2055039;28;20700;-71
2023/08/26 03:37:59;;;;;;;11.57;10.40;;;17.70;99.90;;;;;;2050516;28;20326;-70
2023/08/26 03:39:00;;;;;;;26.13;15.33;;;17.70;99.90;;;;;;2051776;28;20233;-70
2023/08/26 03:40:00;;;;;;;18.37;13.53;;;17.70;99.90;;;;;;2054187;28;20481;-71
2023/08/26 03:41:05;;;;;;;16.37;12.93;;;17.70;99.90;;;;;;2062687;28;20236;-70
2023/08/26 03:42:06;;;;;;;15.27;13.23;;;17.60;99.90;;;;;;2051127;28;20281;-69
2023/08/26 03:43:07;;;;;;;19.00;12.37;;;17.60;99.90;;;;;;2045211;28;20489;-71
2023/08/26 03:44:08;;;;;;;17.57;13.10;;;17.70;99.90;;;;;;2047753;28;20437;-70
2023/08/26 03:45:10;;;;;;;16.77;12.60;;;17.80;99.90;;;;;;2051287;28;20201;-70
2023/08/26 03:46:11;;;;;;;13.03;11.63;;;17.90;99.90;;;;;;2061158;28;20643;-70
2023/08/26 03:47:11;;;;;;;15.20;10.93;;;17.90;99.90;;;;;;2057702;28;20420;-69
2023/08/26 03:48:12;;;;;;;13.13;10.80;;;17.90;99.90;;;;;;2061926;28;20779;-70
2023/08/26 03:49:13;;;;;;;14.23;11.93;;;17.80;99.90;;;;;;2063654;28;20644;-70
2023/08/26 03:50:14;;;;;;;15.07;12.17;;;17.90;99.90;;;;;;2062618;28;20618;-70
2023/08/26 03:51:14;;;;;;;14.70;11.30;;;17.80;99.90;;;;;;2054999;28;20211;-70
2023/08/26 03:52:16;;;;;;;15.03;12.13;;;17.80;99.90;;;;;;2053300;28;20290;-70
2023/08/26 03:53:17;;;;;;;19.53;11.90;;;17.70;99.90;;;;;;2050759;28;20218;-71
2023/08/26 03:54:18;;;;;;;17.57;13.43;;;17.70;99.90;;;;;;2045239;28;20813;-69
2023/08/26 03:55:19;;;;;;;15.07;10.97;;;17.60;99.90;;;;;;2058823;28;20523;-70
2023/08/26 03:56:19;;;;;;;11.60;9.80;;;17.60;99.90;;;;;;2063320;28;20194;-69
2023/08/26 03:57:20;;;;;;;12.40;10.23;;;17.60;99.90;;;;;;2063277;28;20607;-70
2023/08/26 03:58:21;;;;;;;11.30;10.00;;;17.60;99.90;;;;;;2057998;28;21752;-70
2023/08/26 03:59:22;;;;;;;12.17;10.00;;;17.70;99.90;;;;;;2050704;28;20271;-69
2023/08/26 04:00:22;;;;;;;11.20;9.80;;;17.90;99.90;;;;;;2054030;28;20238;-70
2023/08/26 04:01:24;;;;;;;13.10;11.07;;;17.90;99.90;;;;;;2055080;28;20308;-71
2023/08/26 04:02:24;;;;;;;17.20;11.93;;;17.90;99.90;;;;;;2062442;28;20273;-70
2023/08/26 04:03:25;;;;;;;18.83;13.47;;;17.90;99.90;;;;;;2054678;28;20989;-70
2023/08/26 04:04:26;;;;;;;21.07;14.23;;;17.90;99.90;;;;;;2046417;28;20303;-69
2023/08/26 04:05:27;;;;;;;17.17;12.37;;;17.90;99.90;;;;;;2054145;28;20660;-70
2023/08/26 04:06:27;;;;;;;19.43;13.57;;;17.80;99.90;;;;;;2046359;28;20561;-70
2023/08/26 04:07:28;;;;;;;21.03;14.53;;;17.70;99.90;;;;;;2054430;28;20686;-70
2023/08/26 04:08:32;;;;;;;21.67;14.90;;;17.50;99.90;;;;;;2062402;28;20389;-70
2023/08/26 04:09:33;;;;;;;26.10;14.97;;;17.40;99.90;;;;;;2061727;28;20256;-70
2023/08/26 04:10:33;;;;;;;13.53;11.47;;;17.50;99.90;;;;;;2062257;28;20474;-69
2023/08/26 04:11:34;;;;;;;18.40;11.83;;;17.50;99.90;;;;;;2041740;28;20319;-70
2023/08/26 04:12:35;;;;;;;17.73;10.80;;;17.50;99.90;;;;;;2044888;28;20315;-70
2023/08/26 04:13:36;;;;;;;16.60;12.80;;;17.50;99.90;;;;;;2060654;28;20292;-70
2023/08/26 04:14:36;;;;;;;19.50;12.30;;;17.50;99.90;;;;;;2063164;28;20226;-70
2023/08/26 04:15:37;;;;;;;16.90;12.33;;;17.60;99.90;;;;;;2061560;28;20291;-70
2023/08/26 04:16:38;;;;;;;21.43;14.57;;;17.60;99.90;;;;;;2053937;28;20714;-70
2023/08/26 04:17:41;;;;;;;18.20;11.90;;;17.60;99.90;;;;;;2053464;28;20234;-70
2023/08/26 04:18:45;;;;;;;15.23;12.00;;;17.70;99.90;;;;;;2054299;28;20237;-70
2023/08/26 04:19:46;;;;;;;14.13;10.43;;;17.80;99.90;;;;;;2051623;28;20536;-70
2023/08/26 04:20:46;;;;;;;17.87;12.47;;;17.80;99.90;;;;;;2054351;28;20932;-70
2023/08/26 04:21:48;;;;;;;17.53;13.67;;;17.70;99.90;;;;;;2054024;28;20785;-70
2023/08/26 04:22:49;;;;;;;23.20;15.00;;;17.60;99.90;;;;;;2045919;28;20238;-70
2023/08/26 04:23:50;;;;;;;17.33;11.93;;;17.60;99.90;;;;;;2046167;28;20537;-70
2023/08/26 04:24:51;;;;;;;20.57;12.87;;;17.60;99.90;;;;;;2046984;28;20247;-70
2023/08/26 04:25:56;;;;;;;23.10;14.60;;;17.60;99.90;;;;;;2059685;28;20468;-70
2023/08/26 04:26:57;;;;;;;15.17;11.33;;;17.60;99.90;;;;;;2059927;28;21004;-70
2023/08/26 04:27:58;;;;;;;12.47;11.17;;;17.60;99.90;;;;;;2054121;28;20464;-70
2023/08/26 04:28:58;;;;;;;13.07;11.60;;;17.70;99.90;;;;;;2054162;28;20277;-70
2023/08/26 04:30:00;;;;;;;15.73;11.77;;;17.70;99.90;;;;;;2059994;28;20615;-70
2023/08/26 04:31:01;;;;;;;22.03;13.57;;;17.70;99.90;;;;;;2069212;28;20263;-70
2023/08/26 04:32:02;;;;;;;26.23;16.37;;;17.70;99.90;;;;;;2058310;28;20560;-72
2023/08/26 04:33:06;;;;;;;19.00;13.63;;;17.60;99.90;;;;;;2056104;28;20286;-70
2023/08/26 04:34:06;;;;;;;14.57;11.50;;;17.60;99.90;;;;;;2057997;28;20242;-71
2023/08/26 04:35:07;;;;;;;13.50;11.30;;;17.60;99.90;;;;;;2059935;28;20840;-70
2023/08/26 04:36:08;;;;;;;10.37;9.03;;;17.60;99.90;;;;;;2059525;28;20231;-70
2023/08/26 04:37:09;;;;;;;13.27;10.63;;;17.60;99.90;;;;;;2054042;28;20186;-70
2023/08/26 04:38:09;;;;;;;17.67;12.77;;;17.60;99.90;;;;;;2056436;28;20187;-70
2023/08/26 04:39:13;;;;;;;20.20;12.73;;;17.50;99.90;;;;;;2052051;28;20707;-70
2023/08/26 04:40:14;;;;;;;12.57;9.37;;;17.50;99.90;;;;;;2046333;28;20302;-70
2023/08/26 04:41:15;;;;;;;11.50;8.70;;;17.50;99.90;;;;;;2061132;28;20440;-69
2023/08/26 04:42:15;;;;;;;10.63;8.60;;;17.40;99.90;;;;;;2060484;28;20217;-70
2023/08/26 04:43:16;;;;;;;13.27;10.20;;;17.40;99.90;;;;;;2069688;28;20209;-70
2023/08/26 04:44:17;;;;;;;16.83;12.07;;;17.40;99.90;;;;;;2070068;28;20178;-70
2023/08/26 04:45:18;;;;;;;13.77;11.20;;;17.40;99.90;;;;;;2053136;28;20628;-69
2023/08/26 04:46:19;;;;;;;12.57;10.17;;;17.30;99.90;;;;;;2042025;28;20278;-70
2023/08/26 04:47:22;;;;;;;10.90;9.80;;;17.40;99.90;;;;;;2060101;28;20257;-70
2023/08/26 04:48:22;;;;;;;13.20;10.60;;;17.40;99.90;;;;;;2053811;28;20242;-70
2023/08/26 04:49:24;;;;;;;12.60;10.33;;;17.40;99.90;;;;;;2038355;28;20478;-70
2023/08/26 04:50:25;;;;;;;12.00;10.03;;;17.40;99.90;;;;;;2061953;28;20309;-69
2023/08/26 04:51:26;;;;;;;10.47;9.37;;;17.40;99.90;;;;;;2069861;28;20835;-70
2023/08/26 04:52:27;;;;;;;13.90;9.13;;;17.40;99.90;;;;;;2061405;28;20233;-70
2023/08/26 04:53:27;;;;;;;12.80;10.43;;;17.40;99.90;;;;;;2061792;28;20346;-70
2023/08/26 04:54:28;;;;;;;11.23;9.40;;;17.40;99.90;;;;;;2062121;28;20299;-69
2023/08/26 04:55:31;;;;;;;10.30;9.27;;;17.40;99.90;;;;;;2062323;28;20234;-70
2023/08/26 04:56:31;;;;;;;11.33;7.47;;;17.30;99.90;;;;;;2062256;28;20226;-70
2023/08/26 04:57:32;;;;;;;9.23;8.40;;;17.20;99.90;;;;;;2062072;28;20543;-70
2023/08/26 04:58:33;;;;;;;8.83;7.93;;;17.20;99.90;;;;;;2061628;28;20230;-69
2023/08/26 04:59:36;;;;;;;9.33;7.83;;;17.10;99.90;;;;;;2053938;28;20353;-69
2023/08/26 05:00:41;;;;;;;11.00;7.73;;;17.10;99.90;;;;;;2052430;28;20237;-70
2023/08/26 05:01:42;;;;;;;11.83;8.70;;;17.10;99.90;;;;;;2052076;28;20499;-70
2023/08/26 05:02:44;;;;;;;12.37;8.83;;;17.10;99.90;;;;;;2061885;28;20727;-69
2023/08/26 05:03:45;;;;;;;13.17;8.20;;;17.00;99.90;;;;;;2062329;28;20233;-69
2023/08/26 05:04:46;;;;;;;11.30;8.30;;;17.00;99.90;;;;;;2043523;28;20477;-69
2023/08/26 05:05:47;;;;;;;9.00;8.10;;;16.80;99.90;;;;;;2044635;28;20226;-70
2023/08/26 05:06:47;;;;;;;9.37;7.40;;;16.70;99.90;;;;;;2062221;28;20472;-70
2023/08/26 05:07:48;;;;;;;8.23;6.47;;;16.70;99.90;;;;;;2049576;28;20253;-70
2023/08/26 05:08:49;;;;;;;9.70;6.40;;;16.60;99.90;;;;;;2050173;28;20222;-70
2023/08/26 05:09:50;;;;;;;8.47;5.90;;;16.50;99.90;;;;;;2062880;28;20460;-69
2023/08/26 05:10:50;;;;;;;7.97;5.30;;;16.40;99.90;;;;;;2059053;28;20225;-70
2023/08/26 05:11:51;;;;;;;8.47;4.97;;;16.30;99.90;;;;;;2054376;28;20297;-70
2023/08/26 05:12:52;;;;;;;6.47;5.00;;;16.30;99.90;;;;;;2054546;28;20245;-70
2023/08/26 05:13:54;;;;;;;6.73;5.03;;;16.20;99.90;;;;;;2063014;28;20717;-69
2023/08/26 05:14:55;;;;;;;7.13;5.20;;;16.10;99.90;;;;;;2049527;28;20218;-69
2023/08/26 05:15:56;;;;;;;4.80;4.13;;;16.10;99.90;;;;;;2046555;28;20846;-69
2023/08/26 05:16:56;;;;;;;7.43;4.97;;;16.10;99.90;;;;;;2051817;28;20218;-70